Time;durP1;ratioP1;P1;durP2;ratioP2;P2;SDS_P1;SDS_P2;PMS_P1;PMS_P2;Temp;Humidity;BMP_temperature;BMP_pressure;BME280_temperature;BME280_humidity;BME280_pressure;Samples;Min_cycle;Max_cycle;Signal;HPM_P1;HPM_P2
2021/08/02 00:01:52;;;;;;;3.03;1.93;;;12.50;99.90;;;;;;5028421;28;20206;-82
2021/08/02 00:04:21;;;;;;;4.17;2.10;;;12.60;99.90;;;;;;5035600;28;20202;-81
2021/08/02 00:06:56;;;;;;;2.17;1.97;;;12.60;99.90;;;;;;5033764;28;20185;-82
2021/08/02 00:09:24;;;;;;;2.50;1.90;;;12.60;99.90;;;;;;5021647;28;20207;-82
2021/08/02 00:11:57;;;;;;;4.00;2.30;;;12.60;99.90;;;;;;5023640;28;20645;-82
2021/08/02 00:14:24;;;;;;;3.73;2.40;;;12.70;99.90;;;;;;5022381;28;20210;-82
2021/08/02 00:16:51;;;;;;;2.60;2.10;;;12.70;99.90;;;;;;5022916;28;20679;-82
2021/08/02 00:19:17;;;;;;;5.53;2.50;;;12.70;99.90;;;;;;5023694;28;20175;-82
2021/08/02 00:21:44;;;;;;;3.43;2.87;;;12.70;99.90;;;;;;5024361;28;20203;-82
2021/08/02 00:24:10;;;;;;;4.00;3.40;;;12.70;99.90;;;;;;5023116;28;20663;-82
2021/08/02 00:26:38;;;;;;;5.60;3.70;;;12.70;99.90;;;;;;5022974;28;20186;-82
2021/08/02 00:29:05;;;;;;;5.50;3.60;;;12.70;99.90;;;;;;5023389;28;20211;-82
2021/08/02 00:31:31;;;;;;;5.43;3.93;;;12.70;99.90;;;;;;5024407;28;20187;-82
2021/08/02 00:33:57;;;;;;;4.23;3.37;;;12.80;99.90;;;;;;5024454;28;20182;-82
2021/08/02 00:36:57;;;;;;;4.10;3.30;;;12.80;99.90;;;;;;5024858;28;20207;-82
2021/08/02 00:39:36;;;;;;;5.77;4.33;;;12.80;99.90;;;;;;5024664;28;20611;-82
2021/08/02 00:42:24;;;;;;;3.77;3.43;;;12.90;99.90;;;;;;5025348;28;20170;-82
2021/08/02 00:45:02;;;;;;;5.97;4.23;;;12.90;99.90;;;;;;5024760;28;20626;-82
2021/08/02 00:47:33;;;;;;;6.17;3.73;;;12.80;99.90;;;;;;5023306;28;20190;-82
2021/08/02 00:50:12;;;;;;;4.93;3.93;;;12.90;99.90;;;;;;5023024;28;20186;-82
2021/08/02 00:52:47;;;;;;;4.50;3.90;;;12.90;99.90;;;;;;5022104;28;20167;-82
2021/08/02 00:55:13;;;;;;;5.23;3.50;;;12.90;99.90;;;;;;5023214;28;20751;-82
2021/08/02 00:57:42;;;;;;;7.00;3.23;;;12.90;99.90;;;;;;5022255;28;20193;-82
2021/08/02 01:00:12;;;;;;;4.20;3.37;;;12.90;99.90;;;;;;5021590;28;20175;-82
2021/08/02 01:02:46;;;;;;;3.73;3.20;;;12.90;99.90;;;;;;5022596;28;20191;-82
2021/08/02 01:05:13;;;;;;;4.87;3.10;;;13.00;99.90;;;;;;5021778;28;20292;-82
2021/08/02 01:08:11;;;;;;;4.37;3.00;;;13.00;99.90;;;;;;5023059;28;20176;-82
2021/08/02 01:10:42;;;;;;;5.20;3.07;;;13.00;99.90;;;;;;5021184;28;20185;-82
2021/08/02 01:13:12;;;;;;;3.33;2.70;;;12.90;99.90;;;;;;5021340;28;20174;-82
2021/08/02 01:15:40;;;;;;;3.00;2.50;;;12.90;99.90;;;;;;5020535;28;20211;-82
2021/08/02 01:18:07;;;;;;;3.10;2.67;;;12.90;99.90;;;;;;5021452;28;20274;-82
2021/08/02 01:20:37;;;;;;;2.67;2.47;;;12.90;99.90;;;;;;5021078;28;20198;-82
2021/08/02 01:23:04;;;;;;;3.03;2.33;;;12.90;99.90;;;;;;5021712;28;20173;-82
2021/08/02 01:25:36;;;;;;;2.43;2.23;;;12.90;99.90;;;;;;5021449;28;20201;-82
2021/08/02 01:28:14;;;;;;;3.10;2.60;;;12.90;99.90;;;;;;5022035;28;20186;-82
2021/08/02 01:30:42;;;;;;;3.50;2.77;;;12.80;99.90;;;;;;5021268;28;20179;-82
2021/08/02 01:33:09;;;;;;;4.33;2.90;;;12.80;99.90;;;;;;5021320;28;20183;-82
2021/08/02 01:35:36;;;;;;;3.47;3.17;;;12.80;99.90;;;;;;5021260;28;20201;-82
2021/08/02 01:38:03;;;;;;;3.63;3.33;;;12.70;99.90;;;;;;5021318;28;20268;-82
2021/08/02 01:40:29;;;;;;;4.00;3.60;;;12.70;99.90;;;;;;5021266;28;20179;-82
2021/08/02 01:42:57;;;;;;;3.77;3.30;;;12.70;99.90;;;;;;5022780;28;20175;-82
2021/08/02 01:45:23;;;;;;;6.13;3.83;;;12.70;99.90;;;;;;5020807;28;20244;-82
2021/08/02 01:48:07;;;;;;;4.53;3.70;;;12.70;99.90;;;;;;5020709;28;20179;-82
2021/08/02 01:50:55;;;;;;;5.53;3.53;;;12.60;99.90;;;;;;5022663;28;20187;-82
2021/08/02 01:53:43;;;;;;;4.80;3.47;;;12.60;99.90;;;;;;5021344;28;20617;-82
2021/08/02 01:56:42;;;;;;;5.37;3.73;;;12.70;99.90;;;;;;5020999;28;20211;-82
2021/08/02 01:59:13;;;;;;;4.60;3.43;;;12.70;99.90;;;;;;5023724;28;20215;-82
2021/08/02 02:01:44;;;;;;;5.80;3.47;;;12.70;99.90;;;;;;5025349;28;20167;-82
2021/08/02 02:04:11;;;;;;;8.60;3.20;;;12.70;99.90;;;;;;5024263;28;20195;-82
2021/08/02 02:06:45;;;;;;;4.90;3.37;;;12.70;99.90;;;;;;5024038;28;20190;-82
2021/08/02 02:09:14;;;;;;;4.03;3.57;;;12.70;99.90;;;;;;5024279;28;20172;-82
2021/08/02 02:11:44;;;;;;;6.00;3.93;;;12.70;99.90;;;;;;5023856;28;20206;-82
2021/08/02 02:14:11;;;;;;;6.30;3.73;;;12.70;99.90;;;;;;5024392;28;20217;-82
2021/08/02 02:16:40;;;;;;;6.00;3.50;;;12.70;99.90;;;;;;5025764;28;20730;-82
2021/08/02 02:19:07;;;;;;;4.40;3.30;;;12.70;99.90;;;;;;5023834;28;20183;-82
2021/08/02 02:21:34;;;;;;;3.87;3.23;;;12.70;99.90;;;;;;5025423;28;20171;-82
2021/08/02 02:24:01;;;;;;;5.33;3.20;;;12.70;99.90;;;;;;5025104;28;20175;-82
2021/08/02 02:26:31;;;;;;;4.53;3.27;;;12.70;99.90;;;;;;5023774;28;20195;-82
2021/08/02 02:28:58;;;;;;;5.73;3.50;;;12.70;99.90;;;;;;5024020;28;20205;-82
2021/08/02 02:31:25;;;;;;;3.27;2.97;;;12.70;99.90;;;;;;5024592;28;20190;-82
2021/08/02 02:33:55;;;;;;;3.97;3.53;;;12.70;99.90;;;;;;5025572;28;20182;-83
2021/08/02 02:36:21;;;;;;;4.20;3.30;;;12.60;99.90;;;;;;5025172;28;20195;-82
2021/08/02 02:38:50;;;;;;;4.73;3.10;;;12.60;99.90;;;;;;5024838;28;20179;-83
2021/08/02 02:41:20;;;;;;;3.83;3.30;;;12.60;99.90;;;;;;5024333;28;20208;-82
2021/08/02 02:43:47;;;;;;;4.77;3.30;;;12.60;99.90;;;;;;5023612;28;20171;-82
2021/08/02 02:46:14;;;;;;;5.97;3.83;;;12.60;99.90;;;;;;5023731;28;20660;-82
2021/08/02 02:48:41;;;;;;;4.20;3.20;;;12.50;99.90;;;;;;5023683;28;20179;-82
2021/08/02 02:51:09;;;;;;;3.97;3.20;;;12.50;99.90;;;;;;5025575;28;20206;-82
2021/08/02 02:53:35;;;;;;;4.97;3.43;;;12.50;99.90;;;;;;5023457;28;20179;-82
2021/08/02 02:56:08;;;;;;;4.73;3.30;;;12.50;99.90;;;;;;5024744;28;20210;-82
2021/08/02 02:58:34;;;;;;;4.50;3.20;;;12.40;99.90;;;;;;5022673;28;20184;-83
2021/08/02 03:01:01;;;;;;;5.43;3.60;;;12.40;99.90;;;;;;5023400;28;20556;-82
2021/08/02 03:03:28;;;;;;;6.17;3.80;;;12.40;99.90;;;;;;5023961;28;20176;-83
2021/08/02 03:05:54;;;;;;;4.20;3.47;;;12.40;99.90;;;;;;5024164;28;20238;-83
2021/08/02 03:08:23;;;;;;;5.03;3.60;;;12.30;99.90;;;;;;5023179;28;20192;-83
2021/08/02 03:10:51;;;;;;;6.40;4.23;;;12.30;99.90;;;;;;5022955;28;20248;-83
2021/08/02 03:13:17;;;;;;;4.10;3.70;;;12.30;99.90;;;;;;5024824;28;20185;-82
2021/08/02 03:15:43;;;;;;;6.70;3.93;;;12.30;99.90;;;;;;5029328;28;20211;-82
2021/08/02 03:18:09;;;;;;;6.27;3.87;;;12.30;99.90;;;;;;5034391;28;20181;-82
2021/08/02 03:20:35;;;;;;;7.97;4.27;;;12.30;99.90;;;;;;5025550;28;20174;-82
2021/08/02 03:23:29;;;;;;;5.10;3.77;;;12.30;99.90;;;;;;5026271;28;20181;-82
2021/08/02 03:26:24;;;;;;;5.50;4.40;;;12.20;99.90;;;;;;5025641;28;20256;-82
2021/08/02 03:28:55;;;;;;;4.60;3.80;;;12.10;99.90;;;;;;5038970;28;20191;-82
2021/08/02 03:31:28;;;;;;;5.57;3.57;;;12.00;99.90;;;;;;5021543;28;20698;-82
2021/08/02 03:33:55;;;;;;;4.53;3.57;;;12.00;99.90;;;;;;5021897;28;20719;-82
2021/08/02 03:36:22;;;;;;;5.53;4.00;;;11.90;99.90;;;;;;5022057;28;20200;-82
2021/08/02 03:38:50;;;;;;;4.87;3.87;;;11.90;99.90;;;;;;5023365;28;20194;-82
2021/08/02 03:41:19;;;;;;;5.03;3.90;;;11.90;99.90;;;;;;5021771;28;20186;-82
2021/08/02 03:43:46;;;;;;;6.63;4.43;;;11.90;99.90;;;;;;5022344;28;20182;-82
2021/08/02 03:46:13;;;;;;;4.53;3.90;;;11.90;99.90;;;;;;5022992;28;20210;-82
2021/08/02 03:48:39;;;;;;;6.60;3.90;;;11.90;99.90;;;;;;5022208;28;20179;-82
2021/08/02 03:51:05;;;;;;;6.17;4.77;;;12.00;99.90;;;;;;5022327;28;20189;-83
2021/08/02 03:53:41;;;;;;;5.80;4.20;;;12.00;99.90;;;;;;5021928;28;20560;-82
2021/08/02 03:56:08;;;;;;;5.53;3.87;;;11.90;99.90;;;;;;5021681;28;20206;-82
2021/08/02 03:58:34;;;;;;;5.57;4.17;;;12.00;99.90;;;;;;5023125;28;20167;-82
2021/08/02 04:00:59;;;;;;;4.40;3.77;;;12.00;99.90;;;;;;5021981;28;20636;-82
2021/08/02 04:03:25;;;;;;;6.40;4.00;;;12.00;99.90;;;;;;5021616;28;20183;-82
2021/08/02 04:05:53;;;;;;;4.30;3.80;;;12.00;99.90;;;;;;5023117;28;20195;-82
2021/08/02 04:08:19;;;;;;;6.30;4.00;;;12.00;99.90;;;;;;5022846;28;20173;-82
2021/08/02 04:10:45;;;;;;;4.37;3.53;;;11.90;99.90;;;;;;5022099;28;20585;-82
2021/08/02 04:13:10;;;;;;;8.63;4.63;;;11.90;99.90;;;;;;5021186;28;20187;-82
2021/08/02 04:15:37;;;;;;;4.83;4.00;;;11.90;99.90;;;;;;5022599;28;20717;-82
2021/08/02 04:18:03;;;;;;;8.37;4.00;;;11.90;99.90;;;;;;5021063;28;20175;-82
2021/08/02 04:20:29;;;;;;;5.83;3.53;;;11.80;99.90;;;;;;5021550;28;20651;-82
2021/08/02 04:22:55;;;;;;;4.10;3.70;;;11.90;99.90;;;;;;5021822;28;20175;-82
2021/08/02 04:25:20;;;;;;;6.97;3.67;;;11.90;99.90;;;;;;5021159;28;20715;-82
2021/08/02 04:27:46;;;;;;;4.23;3.73;;;12.00;99.90;;;;;;5022184;28;20174;-82
2021/08/02 04:30:12;;;;;;;4.73;3.60;;;12.10;99.90;;;;;;5020978;28;20253;-82
2021/08/02 04:32:45;;;;;;;4.00;3.33;;;12.10;99.90;;;;;;5020659;28;20208;-82
2021/08/02 04:35:11;;;;;;;5.73;3.33;;;12.20;99.90;;;;;;5020743;28;20228;-82
2021/08/02 04:37:37;;;;;;;5.13;3.53;;;12.20;99.90;;;;;;5020882;28;20209;-82
2021/08/02 04:40:05;;;;;;;6.40;3.30;;;12.30;99.90;;;;;;5021142;28;20181;-82
2021/08/02 04:42:37;;;;;;;3.47;2.97;;;12.30;99.90;;;;;;5022662;28;20534;-83
2021/08/02 04:45:04;;;;;;;4.03;3.10;;;12.30;99.90;;;;;;5020896;28;20226;-82
2021/08/02 04:47:30;;;;;;;3.40;3.10;;;12.40;99.90;;;;;;5020754;28;20236;-82
2021/08/02 04:49:56;;;;;;;4.80;2.67;;;12.40;99.90;;;;;;5020850;28;20179;-82
2021/08/02 04:52:21;;;;;;;4.07;2.90;;;12.50;99.90;;;;;;5020683;28;20207;-82
2021/08/02 04:54:47;;;;;;;5.07;3.53;;;12.40;99.90;;;;;;5021637;28;20270;-82
2021/08/02 04:57:13;;;;;;;4.73;3.07;;;12.40;99.90;;;;;;5020739;28;20257;-83
2021/08/02 04:59:39;;;;;;;5.77;2.80;;;12.40;99.90;;;;;;5022149;28;20171;-82
2021/08/02 05:02:06;;;;;;;5.37;2.77;;;12.40;99.90;;;;;;5021244;28;20172;-82
2021/08/02 05:04:32;;;;;;;3.30;2.67;;;12.40;99.90;;;;;;5020522;28;20198;-82
2021/08/02 05:06:58;;;;;;;4.37;3.00;;;12.40;99.90;;;;;;5021909;28;20529;-83
2021/08/02 05:09:23;;;;;;;4.70;2.80;;;12.40;99.90;;;;;;5020288;28;20182;-82
2021/08/02 05:11:51;;;;;;;5.03;2.97;;;12.50;99.90;;;;;;5020638;28;20185;-82
2021/08/02 05:14:17;;;;;;;4.63;2.50;;;12.50;99.90;;;;;;5021560;28;20199;-82
2021/08/02 05:16:44;;;;;;;5.30;3.07;;;12.60;99.90;;;;;;5023458;28;20286;-82
2021/08/02 05:19:10;;;;;;;5.73;2.67;;;12.70;99.90;;;;;;5021626;28;20178;-82
2021/08/02 05:21:36;;;;;;;3.23;2.43;;;12.70;99.90;;;;;;5021103;28;20179;-82
2021/08/02 05:24:02;;;;;;;4.53;2.33;;;12.80;99.90;;;;;;5022825;28;20679;-82
2021/08/02 05:26:28;;;;;;;3.77;2.90;;;12.90;99.90;;;;;;5023310;28;20175;-82
2021/08/02 05:28:53;;;;;;;5.17;2.40;;;13.00;99.90;;;;;;5023021;28;20692;-83
2021/08/02 05:31:19;;;;;;;3.80;2.47;;;13.00;99.90;;;;;;5020703;28;20178;-84
2021/08/02 05:33:48;;;;;;;4.87;2.17;;;13.10;99.90;;;;;;5017829;28;20214;-83
2021/08/02 05:36:16;;;;;;;2.50;2.07;;;13.10;99.90;;;;;;5018962;28;20202;-83
2021/08/02 05:38:42;;;;;;;2.20;2.00;;;13.20;99.90;;;;;;5020333;28;20198;-83
2021/08/02 05:41:08;;;;;;;2.90;2.03;;;13.20;99.90;;;;;;5021603;28;20181;-82
2021/08/02 05:43:34;;;;;;;1.90;1.60;;;13.30;99.90;;;;;;5021008;28;20201;-82
2021/08/02 05:46:00;;;;;;;3.20;1.90;;;13.30;99.90;;;;;;5020618;28;20318;-82
2021/08/02 05:48:26;;;;;;;4.77;1.97;;;13.40;99.90;;;;;;5021035;28;20213;-82
2021/08/02 05:50:51;;;;;;;3.40;2.03;;;13.40;99.90;;;;;;5021156;28;20189;-82
2021/08/02 05:53:17;;;;;;;3.87;2.30;;;13.60;99.90;;;;;;5021444;28;20261;-82
2021/08/02 05:55:43;;;;;;;2.83;2.00;;;13.60;99.90;;;;;;5019753;28;20680;-82
2021/08/02 05:58:10;;;;;;;1.90;1.70;;;13.70;99.90;;;;;;5022280;28;20218;-82
2021/08/02 06:00:36;;;;;;;2.23;1.90;;;13.70;99.90;;;;;;5021874;28;20182;-82
2021/08/02 06:03:01;;;;;;;5.90;1.90;;;13.70;99.90;;;;;;5020010;28;20175;-82
2021/08/02 06:05:27;;;;;;;2.60;1.77;;;13.70;99.90;;;;;;5021118;28;20195;-82
2021/08/02 06:07:52;;;;;;;2.53;1.93;;;13.80;99.90;;;;;;5021611;28;20171;-82
2021/08/02 06:10:18;;;;;;;3.97;1.90;;;13.80;99.90;;;;;;5020851;28;20182;-82
2021/08/02 06:12:44;;;;;;;2.27;1.97;;;13.90;99.90;;;;;;5020962;28;20178;-82
2021/08/02 06:15:11;;;;;;;3.37;1.87;;;13.90;99.90;;;;;;5022728;28;20199;-82
2021/08/02 06:17:36;;;;;;;6.30;1.93;;;14.00;99.90;;;;;;5021533;28;20234;-82
2021/08/02 06:20:03;;;;;;;2.30;2.00;;;14.00;99.90;;;;;;5022167;28;20180;-82
2021/08/02 06:22:29;;;;;;;3.10;1.63;;;14.10;99.90;;;;;;5020793;28;20270;-83
2021/08/02 06:24:55;;;;;;;2.30;1.50;;;14.20;99.90;;;;;;5021459;28;20222;-82
2021/08/02 06:27:20;;;;;;;2.97;1.77;;;14.30;99.90;;;;;;5021178;28;20179;-82
2021/08/02 06:29:46;;;;;;;2.47;1.50;;;14.40;99.90;;;;;;5021618;28;20229;-82
2021/08/02 06:32:12;;;;;;;1.73;1.53;;;14.50;99.90;;;;;;5022431;28;20241;-82
2021/08/02 06:34:37;;;;;;;1.70;1.40;;;14.60;99.90;;;;;;5020838;28;20695;-83
2021/08/02 06:37:03;;;;;;;1.50;1.40;;;14.80;99.90;;;;;;5025567;28;20215;-82
2021/08/02 06:39:29;;;;;;;2.57;1.80;;;14.80;99.90;;;;;;5026271;28;20245;-83
2021/08/02 06:41:55;;;;;;;4.00;2.30;;;14.80;99.90;;;;;;5023869;28;20174;-83
2021/08/02 06:44:20;;;;;;;1.70;1.60;;;14.80;99.90;;;;;;5023672;28;20202;-83
2021/08/02 06:46:46;;;;;;;3.87;1.73;;;14.80;99.90;;;;;;5022870;28;20209;-83
2021/08/02 06:49:12;;;;;;;5.37;1.80;;;14.70;99.90;;;;;;5022505;28;20175;-83
2021/08/02 06:51:38;;;;;;;1.77;1.57;;;14.70;99.90;;;;;;5023463;28;20592;-84
2021/08/02 06:54:04;;;;;;;2.90;1.90;;;14.60;99.90;;;;;;5024670;28;20174;-82
2021/08/02 06:56:30;;;;;;;3.23;1.60;;;14.60;99.90;;;;;;5024625;28;20198;-83
2021/08/02 06:58:56;;;;;;;3.77;1.60;;;14.60;99.90;;;;;;5021717;28;20201;-83
2021/08/02 07:01:21;;;;;;;2.50;2.13;;;14.40;99.90;;;;;;5020693;28;20175;-83
2021/08/02 07:03:47;;;;;;;2.53;2.10;;;14.60;99.90;;;;;;5020486;28;20179;-83
2021/08/02 07:06:13;;;;;;;2.20;1.87;;;14.70;99.90;;;;;;5020780;28;20273;-83
2021/08/02 07:08:39;;;;;;;2.87;2.00;;;14.80;99.90;;;;;;5020210;28;20507;-83
2021/08/02 07:11:06;;;;;;;2.97;1.83;;;15.00;99.90;;;;;;5021781;28;20178;-82
2021/08/02 07:13:32;;;;;;;2.90;1.70;;;15.10;99.90;;;;;;5019972;28;20679;-83
2021/08/02 07:16:00;;;;;;;3.17;2.00;;;15.20;99.90;;;;;;5020460;28;20210;-82
2021/08/02 07:18:26;;;;;;;3.03;2.17;;;15.30;99.90;;;;;;5019622;28;20174;-82
2021/08/02 07:20:52;;;;;;;2.77;1.90;;;15.40;99.90;;;;;;5019534;28;20747;-82
2021/08/02 07:23:17;;;;;;;2.20;1.63;;;15.50;99.90;;;;;;5020458;28;20210;-82
2021/08/02 07:25:43;;;;;;;4.70;1.87;;;15.60;99.90;;;;;;5022650;28;20214;-82
2021/08/02 07:28:09;;;;;;;3.33;1.73;;;15.70;99.90;;;;;;5021167;28;20174;-82
2021/08/02 07:30:35;;;;;;;1.73;1.53;;;15.70;99.90;;;;;;5021055;28;20201;-82
2021/08/02 07:33:01;;;;;;;1.73;1.50;;;15.80;99.90;;;;;;5020505;28;20175;-82
2021/08/02 07:35:27;;;;;;;2.20;2.00;;;15.80;99.90;;;;;;5020805;28;20206;-82
2021/08/02 07:37:53;;;;;;;3.37;1.93;;;15.90;99.90;;;;;;5022147;28;20253;-82
2021/08/02 07:40:19;;;;;;;3.43;1.80;;;16.00;99.90;;;;;;5021308;28;20633;-82
2021/08/02 07:42:44;;;;;;;2.50;1.80;;;16.10;99.90;;;;;;5020673;28;20513;-82
2021/08/02 07:45:11;;;;;;;3.60;1.73;;;16.20;99.90;;;;;;5019114;28;20562;-83
2021/08/02 07:47:36;;;;;;;3.30;2.07;;;16.10;99.90;;;;;;5020229;28;20186;-82
2021/08/02 07:50:04;;;;;;;2.77;1.77;;;16.10;99.90;;;;;;5019716;28;20179;-82
2021/08/02 07:52:31;;;;;;;2.13;1.73;;;16.10;99.90;;;;;;5019304;28;20205;-82
2021/08/02 07:55:00;;;;;;;3.07;1.50;;;16.10;99.90;;;;;;5020703;28;20199;-82
2021/08/02 07:57:29;;;;;;;2.43;1.80;;;16.20;99.90;;;;;;5020783;28;20199;-82
2021/08/02 07:59:56;;;;;;;1.90;1.50;;;16.30;99.90;;;;;;5019203;28;20177;-83
2021/08/02 08:02:21;;;;;;;1.83;1.60;;;16.40;99.90;;;;;;5022272;28;20635;-83
2021/08/02 08:04:47;;;;;;;1.77;1.50;;;16.40;99.90;;;;;;5021935;28;20222;-83
2021/08/02 08:07:13;;;;;;;2.27;1.80;;;16.30;99.90;;;;;;5022605;28;20179;-82
2021/08/02 08:09:39;;;;;;;2.47;1.80;;;16.20;99.90;;;;;;5023256;28;20531;-82
2021/08/02 08:12:05;;;;;;;2.00;1.80;;;16.30;99.90;;;;;;5022661;28;20582;-83
2021/08/02 08:14:30;;;;;;;2.10;1.60;;;16.50;99.90;;;;;;5022706;28;20199;-82
2021/08/02 08:16:56;;;;;;;2.10;1.60;;;16.50;99.90;;;;;;5019553;28;20222;-83
2021/08/02 08:19:22;;;;;;;3.90;2.00;;;16.40;99.90;;;;;;5022178;28;20178;-82
2021/08/02 08:21:48;;;;;;;1.73;1.63;;;16.30;99.90;;;;;;5023196;28;20179;-83
2021/08/02 08:24:14;;;;;;;2.23;1.87;;;16.40;99.90;;;;;;5024156;28;20201;-83
2021/08/02 08:26:39;;;;;;;1.73;1.60;;;16.30;99.90;;;;;;5023184;28;20241;-81
2021/08/02 08:29:08;;;;;;;3.60;1.50;;;16.30;99.90;;;;;;5025667;28;20211;-83
2021/08/02 08:31:34;;;;;;;2.57;1.80;;;16.30;99.90;;;;;;5025164;28;20177;-83
2021/08/02 08:34:00;;;;;;;3.67;1.80;;;16.30;99.90;;;;;;5023856;28;20183;-83
2021/08/02 08:36:26;;;;;;;2.43;1.80;;;16.50;99.90;;;;;;5024829;28;20229;-83
2021/08/02 08:38:52;;;;;;;6.10;2.17;;;16.70;99.90;;;;;;5025615;28;20210;-82
2021/08/02 08:41:21;;;;;;;1.93;1.73;;;17.10;99.90;;;;;;5027553;28;20167;-83
2021/08/02 08:43:55;;;;;;;2.53;1.40;;;17.50;99.90;;;;;;5026858;28;20187;-81
2021/08/02 08:46:23;;;;;;;2.53;1.83;;;17.80;99.90;;;;;;5023862;28;20194;-80
2021/08/02 08:48:50;;;;;;;2.17;1.70;;;18.00;99.90;;;;;;5021893;28;20186;-81
2021/08/02 08:51:16;;;;;;;2.27;1.63;;;18.00;99.90;;;;;;5020220;28;20183;-82
2021/08/02 08:53:43;;;;;;;2.07;1.70;;;17.90;99.90;;;;;;5020973;28;20178;-80
2021/08/02 08:56:10;;;;;;;1.60;1.50;;;17.90;99.90;;;;;;5021009;28;20560;-80
2021/08/02 08:58:35;;;;;;;1.70;1.40;;;18.00;99.90;;;;;;5019910;28;20200;-81
2021/08/02 09:01:05;;;;;;;3.17;1.77;;;18.30;99.90;;;;;;5021811;28;20534;-81
2021/08/02 09:03:31;;;;;;;2.17;1.70;;;18.40;99.90;;;;;;5019914;28;20230;-83
2021/08/02 09:06:05;;;;;;;2.27;1.80;;;18.20;99.90;;;;;;5020098;28;20234;-81
2021/08/02 09:08:38;;;;;;;4.13;1.60;;;17.90;99.90;;;;;;5021066;28;20614;-83
2021/08/02 09:11:05;;;;;;;2.43;1.80;;;17.90;99.90;;;;;;5020856;28;20250;-81
2021/08/02 09:13:33;;;;;;;2.90;1.90;;;18.20;99.90;;;;;;5021186;28;20210;-82
2021/08/02 09:16:14;;;;;;;2.17;1.73;;;18.70;99.90;;;;;;5022595;28;20218;-81
2021/08/02 09:18:39;;;;;;;3.57;1.80;;;19.30;99.90;;;;;;5023082;28;20160;-81
2021/08/02 09:21:11;;;;;;;1.70;1.60;;;19.40;99.90;;;;;;5023328;28;20238;-81
2021/08/02 09:23:53;;;;;;;1.80;1.60;;;19.10;99.90;;;;;;5021921;28;20641;-81
2021/08/02 09:26:32;;;;;;;4.43;1.67;;;18.70;99.90;;;;;;5021708;28;20210;-81
2021/08/02 09:28:58;;;;;;;3.30;1.90;;;18.30;99.90;;;;;;5021475;28;20271;-81
2021/08/02 09:31:45;;;;;;;2.57;2.17;;;18.00;99.90;;;;;;5022251;28;20643;-81
2021/08/02 09:34:11;;;;;;;1.80;1.70;;;17.70;99.90;;;;;;5020594;28;20204;-80
2021/08/02 09:36:41;;;;;;;2.83;2.10;;;17.50;99.90;;;;;;5020719;28;20246;-80
2021/08/02 09:39:13;;;;;;;2.90;2.03;;;17.30;99.90;;;;;;5022742;28;20207;-83
2021/08/02 09:41:39;;;;;;;2.33;1.70;;;17.30;99.90;;;;;;5021905;28;20173;-82
2021/08/02 09:44:06;;;;;;;3.30;1.90;;;17.70;99.90;;;;;;5022692;28;20259;-80
2021/08/02 09:46:32;;;;;;;2.10;1.83;;;18.30;99.90;;;;;;5022628;28;20184;-81
2021/08/02 09:49:03;;;;;;;2.70;1.53;;;19.00;99.90;;;;;;5025436;28;20179;-80
2021/08/02 09:51:41;;;;;;;1.93;1.77;;;19.70;99.90;;;;;;5025363;28;20191;-81
2021/08/02 09:54:06;;;;;;;1.87;1.63;;;20.00;99.90;;;;;;5026634;28;20362;-81
2021/08/02 09:56:32;;;;;;;4.07;2.00;;;19.90;99.90;;;;;;5029716;28;20658;-81
2021/08/02 09:58:58;;;;;;;2.77;2.10;;;19.70;99.90;;;;;;5026349;28;20219;-81
2021/08/02 10:01:24;;;;;;;1.80;1.60;;;19.50;99.90;;;;;;5020505;28;20272;-80
2021/08/02 10:03:50;;;;;;;3.20;1.73;;;19.70;99.90;;;;;;5017865;28;20643;-82
2021/08/02 10:06:16;;;;;;;2.53;1.80;;;19.90;99.90;;;;;;5018284;28;20633;-81
2021/08/02 10:08:42;;;;;;;2.13;1.60;;;19.90;99.90;;;;;;5018442;28;20182;-81
2021/08/02 10:11:09;;;;;;;1.60;1.40;;;20.40;99.90;;;;;;5018710;28;20217;-80
2021/08/02 10:13:43;;;;;;;1.60;1.50;;;20.70;99.90;;;;;;5018723;28;20605;-81
2021/08/02 10:16:12;;;;;;;2.30;1.30;;;21.00;99.90;;;;;;5018755;28;20217;-80
2021/08/02 10:18:38;;;;;;;2.53;1.30;;;21.10;99.90;;;;;;5018794;28;20186;-81
2021/08/02 10:21:07;;;;;;;2.23;1.40;;;21.20;99.90;;;;;;5022706;28;20719;-81
2021/08/02 10:23:33;;;;;;;1.60;1.40;;;21.40;99.90;;;;;;5021473;28;20175;-80
2021/08/02 10:25:59;;;;;;;4.17;1.50;;;21.20;99.90;;;;;;5029938;28;20199;-81
2021/08/02 10:28:25;;;;;;;2.80;1.37;;;21.10;99.90;;;;;;5021107;28;20179;-81
2021/08/02 10:31:06;;;;;;;3.03;1.50;;;21.30;99.90;;;;;;5020422;28;20266;-81
2021/08/02 10:33:39;;;;;;;1.57;1.20;;;21.60;99.90;;;;;;5022026;28;20175;-80
2021/08/02 10:36:14;;;;;;;1.70;1.20;;;21.60;99.90;;;;;;5022507;28;20642;-81
2021/08/02 10:38:52;;;;;;;1.37;1.27;;;21.40;99.90;;;;;;5022597;28;20225;-81
2021/08/02 10:41:29;;;;;;;2.07;1.30;;;21.40;99.90;;;;;;5022707;28;20265;-81
2021/08/02 10:43:56;;;;;;;1.43;1.27;;;21.20;99.90;;;;;;5023217;28;20190;-82
2021/08/02 10:46:27;;;;;;;2.80;1.00;;;20.80;99.90;;;;;;5022717;28;20190;-81
2021/08/02 10:49:07;;;;;;;3.00;1.27;;;20.60;99.90;;;;;;5024139;28;20625;-81
2021/08/02 10:51:44;;;;;;;2.27;1.30;;;20.80;99.90;;;;;;5022957;28;20202;-81
2021/08/02 10:54:09;;;;;;;1.73;1.50;;;20.70;99.90;;;;;;5022973;28;20619;-81
2021/08/02 10:56:35;;;;;;;2.33;1.37;;;20.60;99.90;;;;;;5018539;28;20206;-81
2021/08/02 10:59:00;;;;;;;3.67;1.20;;;20.40;99.90;;;;;;5020132;28;20187;-81
2021/08/02 11:01:27;;;;;;;2.07;1.40;;;20.20;99.90;;;;;;5021833;28;20183;-81
2021/08/02 11:04:08;;;;;;;1.57;1.40;;;20.10;99.90;;;;;;5021705;28;20174;-81
2021/08/02 11:06:33;;;;;;;4.20;1.50;;;20.00;99.90;;;;;;5023922;28;20166;-81
2021/08/02 11:08:59;;;;;;;1.90;1.30;;;19.90;99.90;;;;;;5028374;28;20238;-81
2021/08/02 11:11:26;;;;;;;1.70;1.40;;;20.00;99.90;;;;;;5027137;28;20195;-81
2021/08/02 11:14:06;;;;;;;1.90;1.30;;;20.60;99.90;;;;;;5024378;28;20187;-81
2021/08/02 11:16:58;;;;;;;1.80;1.27;;;21.30;99.90;;;;;;5022226;28;20723;-81
2021/08/02 11:19:31;;;;;;;1.60;1.20;;;21.80;99.90;;;;;;5022258;28;20193;-81
2021/08/02 11:21:57;;;;;;;1.83;1.10;;;22.20;99.90;;;;;;5022434;28;20567;-81
2021/08/02 11:24:24;;;;;;;1.40;1.20;;;22.50;99.90;;;;;;5020569;28;20203;-81
2021/08/02 11:26:58;;;;;;;1.93;1.30;;;23.00;99.90;;;;;;5021169;28;20181;-81
2021/08/02 11:29:25;;;;;;;2.33;1.10;;;23.30;99.90;;;;;;5021799;28;20172;-81
2021/08/02 11:32:00;;;;;;;1.60;1.30;;;23.00;99.90;;;;;;5020079;28;20217;-81
2021/08/02 11:34:27;;;;;;;2.13;1.30;;;23.10;99.90;;;;;;5019932;28;20616;-81
2021/08/02 11:36:57;;;;;;;1.63;1.23;;;22.50;99.90;;;;;;5020040;28;20247;-82
2021/08/02 11:39:22;;;;;;;1.90;1.27;;;21.70;99.90;;;;;;5022118;28;20200;-81
2021/08/02 11:42:01;;;;;;;2.60;1.40;;;21.40;99.90;;;;;;5021665;28;20683;-81
2021/08/02 11:44:28;;;;;;;1.63;1.47;;;21.70;99.90;;;;;;5019540;28;20714;-81
2021/08/02 11:46:55;;;;;;;1.33;1.20;;;21.60;99.90;;;;;;5019459;28;20182;-82
2021/08/02 11:49:21;;;;;;;2.20;1.60;;;21.90;99.90;;;;;;5019210;28;20230;-83
2021/08/02 11:51:48;;;;;;;1.57;1.40;;;21.70;99.90;;;;;;5020647;28;20185;-82
2021/08/02 11:54:21;;;;;;;2.00;1.33;;;21.40;99.90;;;;;;5018682;28;20293;-83
2021/08/02 11:56:51;;;;;;;4.50;1.40;;;21.30;99.90;;;;;;5020833;28;20198;-82
2021/08/02 11:59:24;;;;;;;2.60;1.50;;;21.80;99.90;;;;;;5021706;28;20171;-83
2021/08/02 12:01:52;;;;;;;2.97;1.20;;;22.00;99.90;;;;;;5019482;28;20226;-82
2021/08/02 12:04:19;;;;;;;1.30;1.20;;;21.60;99.90;;;;;;5018804;28;20203;-82
2021/08/02 12:06:51;;;;;;;2.00;1.50;;;21.40;99.90;;;;;;5019029;28;20183;-81
2021/08/02 12:09:27;;;;;;;2.00;1.30;;;21.20;99.90;;;;;;5018374;28;20237;-81
2021/08/02 12:11:52;;;;;;;1.47;1.10;;;21.60;99.90;;;;;;5018123;28;20580;-81
2021/08/02 12:14:26;;;;;;;1.30;1.20;;;22.40;99.90;;;;;;5018339;28;20233;-81
2021/08/02 12:17:09;;;;;;;3.33;1.50;;;23.10;99.90;;;;;;5019351;28;20207;-82
2021/08/02 12:19:49;;;;;;;3.57;1.60;;;23.60;99.90;;;;;;5020051;28;20236;-81
2021/08/02 12:22:25;;;;;;;1.57;1.20;;;24.20;99.90;;;;;;5019070;28;20515;-81
2021/08/02 12:24:55;;;;;;;2.13;1.20;;;24.60;99.90;;;;;;5021297;28;20189;-83
2021/08/02 12:27:23;;;;;;;1.73;1.13;;;24.20;99.90;;;;;;5019530;28;20174;-82
2021/08/02 12:30:11;;;;;;;1.73;1.20;;;24.20;99.90;;;;;;5021864;28;20582;-82
2021/08/02 12:32:41;;;;;;;1.30;1.20;;;24.30;99.90;;;;;;5021251;28;20193;-81
2021/08/02 12:35:11;;;;;;;2.13;1.30;;;24.60;99.90;;;;;;5019973;28;20579;-82
2021/08/02 12:37:38;;;;;;;2.57;1.13;;;24.70;99.90;;;;;;5022240;28;20560;-81
2021/08/02 12:40:07;;;;;;;1.53;1.30;;;24.80;99.90;;;;;;5021516;28;20178;-82
2021/08/02 12:42:34;;;;;;;1.60;1.47;;;24.90;99.90;;;;;;5019875;28;20182;-82
2021/08/02 12:45:00;;;;;;;1.50;1.40;;;24.90;99.90;;;;;;5019225;28;20576;-82
2021/08/02 12:47:25;;;;;;;1.70;1.37;;;24.40;99.90;;;;;;5020526;28;20683;-82
2021/08/02 12:49:54;;;;;;;1.70;1.60;;;23.60;99.90;;;;;;5020431;28;20191;-82
2021/08/02 12:52:21;;;;;;;1.67;1.27;;;23.30;99.90;;;;;;5021880;28;20235;-81
2021/08/02 12:54:46;;;;;;;1.60;1.10;;;23.80;99.90;;;;;;5021099;28;20203;-82
2021/08/02 12:57:12;;;;;;;1.47;1.20;;;24.30;99.90;;;;;;5018378;28;20226;-83